createdAt,value
2022-12-01T00:01:20.198Z,7.68
2022-12-01T00:03:47.924Z,8.90
2022-12-01T00:06:21.510Z,8.98
2022-12-01T00:09:12.994Z,6.30
2022-12-01T00:11:42.622Z,6.55
2022-12-01T00:14:09.870Z,7.93
2022-12-01T00:16:37.211Z,6.60
2022-12-01T00:19:04.505Z,6.35
2022-12-01T00:21:31.763Z,6.88
2022-12-01T00:23:59.190Z,7.25
2022-12-01T00:26:27.709Z,6.68
2022-12-01T00:28:57.121Z,6.22
2022-12-01T00:31:24.996Z,5.35
2022-12-01T00:33:52.595Z,6.05
2022-12-01T00:36:20.084Z,5.90
2022-12-01T00:38:47.226Z,5.40
2022-12-01T00:41:15.008Z,5.03
2022-12-01T00:43:42.235Z,4.93
2022-12-01T00:46:09.751Z,6.18
2022-12-01T00:48:37.110Z,6.72
2022-12-01T00:51:04.767Z,5.47
2022-12-01T00:53:32.698Z,4.60
2022-12-01T00:56:00.277Z,5.78
2022-12-01T00:58:27.468Z,4.93
2022-12-01T01:01:02.786Z,5.95
2022-12-01T01:03:31.498Z,4.15
2022-12-01T01:06:05.751Z,3.25
2022-12-01T01:08:33.488Z,4.50
2022-12-01T01:11:01.788Z,3.42
2022-12-01T01:13:30.379Z,3.97
2022-12-01T01:16:19.904Z,4.57
2022-12-01T01:18:48.090Z,4.70
2022-12-01T01:21:18.439Z,3.47
2022-12-01T01:23:46.058Z,4.30
2022-12-01T01:26:26.703Z,4.53
2022-12-01T01:28:56.379Z,6.38
2022-12-01T01:31:25.884Z,5.82
2022-12-01T01:33:53.652Z,5.18
2022-12-01T01:36:21.008Z,5.40
2022-12-01T01:38:51.315Z,6.05
2022-12-01T01:41:20.311Z,5.97
2022-12-01T01:43:50.667Z,6.75
2022-12-01T01:46:20.502Z,5.65
2022-12-01T01:49:02.328Z,6.90
2022-12-01T01:51:51.679Z,7.55
2022-12-01T01:54:34.918Z,7.82
2022-12-01T01:57:03.679Z,7.78
2022-12-01T01:59:37.468Z,6.38
2022-12-01T02:02:08.733Z,6.07
2022-12-01T02:04:47.727Z,5.95
2022-12-01T02:07:18.519Z,5.32
2022-12-01T02:09:46.431Z,6.40
2022-12-01T02:12:40.694Z,5.53
2022-12-01T02:15:17.310Z,5.47
2022-12-01T02:18:06.339Z,5.45
2022-12-01T02:20:45.335Z,4.70
2022-12-01T02:23:45.003Z,5.63
2022-12-01T02:26:30.454Z,5.03
2022-12-01T02:29:00.440Z,4.10
2022-12-01T02:31:57.943Z,6.00
2022-12-01T02:34:44.732Z,5.82
2022-12-01T02:37:27.193Z,5.55
2022-12-01T02:40:10.269Z,5.25
2022-12-01T02:43:03.012Z,4.72
2022-12-01T02:45:42.231Z,5.93
2022-12-01T02:48:16.439Z,4.65
2022-12-01T02:50:46.569Z,5.40
2022-12-01T02:53:18.591Z,4.95
2022-12-01T02:55:58.172Z,5.55
2022-12-01T02:58:25.771Z,5.05
2022-12-01T03:01:20.753Z,6.70
2022-12-01T03:04:03.084Z,7.10
2022-12-01T03:07:00.205Z,6.07
2022-12-01T03:09:36.193Z,6.47
2022-12-01T03:12:15.759Z,5.50
2022-12-01T03:14:54.584Z,6.00
2022-12-01T03:17:29.524Z,6.03
2022-12-01T03:20:17.849Z,6.00
2022-12-01T03:22:54.230Z,4.72
2022-12-01T03:25:24.773Z,5.93
2022-12-01T03:28:20.346Z,4.80
2022-12-01T03:30:46.788Z,5.88
2022-12-01T03:33:20.745Z,6.07
2022-12-01T03:36:20.820Z,6.65
2022-12-01T03:38:54.889Z,6.78
2022-12-01T03:41:30.034Z,6.60
2022-12-01T03:44:12.743Z,11.90
2022-12-01T03:46:49.442Z,6.57
2022-12-01T03:49:18.500Z,5.93
2022-12-01T03:52:04.552Z,6.25
2022-12-01T03:54:59.224Z,6.13
2022-12-01T03:57:34.265Z,9.70
2022-12-01T04:00:02.341Z,6.57
2022-12-01T04:02:40.539Z,6.90
2022-12-01T04:05:10.958Z,5.57
2022-12-01T04:07:39.650Z,5.68
2022-12-01T04:10:08.353Z,6.50
2022-12-01T04:12:35.844Z,6.82
2022-12-01T04:15:10.274Z,6.60
2022-12-01T04:17:37.680Z,5.97
2022-12-01T04:20:06.870Z,6.00
2022-12-01T04:22:34.518Z,6.03
2022-12-01T04:25:01.829Z,6.15
2022-12-01T04:27:29.244Z,6.68
2022-12-01T04:29:56.483Z,7.85
2022-12-01T04:32:24.032Z,5.45
2022-12-01T04:34:51.428Z,6.32
2022-12-01T04:37:19.320Z,7.70
2022-12-01T04:39:46.906Z,8.30
2022-12-01T04:42:14.485Z,7.07
2022-12-01T04:44:42.120Z,6.72
2022-12-01T04:47:09.438Z,7.32
2022-12-01T04:49:37.448Z,7.28
2022-12-01T04:52:05.114Z,6.70
2022-12-01T04:54:32.414Z,10.05
2022-12-01T04:56:59.621Z,7.68
2022-12-01T04:59:27.116Z,39.45
2022-12-01T05:01:54.677Z,11.63
2022-12-01T05:04:22.214Z,6.85
2022-12-01T05:06:49.610Z,7.47
2022-12-01T05:09:17.813Z,7.22
2022-12-01T05:11:45.549Z,8.70
2022-12-01T05:14:13.012Z,8.85
2022-12-01T05:16:40.633Z,9.00
2022-12-01T05:19:26.284Z,8.13
2022-12-01T05:21:53.586Z,8.07
2022-12-01T05:24:21.572Z,7.97
2022-12-01T05:26:49.015Z,7.95
2022-12-01T05:29:16.302Z,6.82
2022-12-01T05:31:45.297Z,5.95
2022-12-01T05:34:12.807Z,7.10
2022-12-01T05:36:40.086Z,6.60
2022-12-01T05:39:07.271Z,9.85
2022-12-01T05:41:34.683Z,9.32
2022-12-01T05:44:01.815Z,9.60
2022-12-01T05:46:29.094Z,9.27
2022-12-01T05:48:56.463Z,13.55
2022-12-01T05:51:23.803Z,7.72
2022-12-01T05:53:51.066Z,7.57
2022-12-01T05:56:18.285Z,7.55
2022-12-01T05:58:45.539Z,8.75
2022-12-01T06:01:12.733Z,9.18
2022-12-01T06:03:40.016Z,8.57
2022-12-01T06:06:07.262Z,7.03
2022-12-01T06:08:34.517Z,10.18
2022-12-01T06:11:02.079Z,7.93
2022-12-01T06:13:29.430Z,8.88
2022-12-01T06:15:58.802Z,7.90
2022-12-01T06:18:27.831Z,9.38
2022-12-01T06:20:55.219Z,11.20
2022-12-01T06:23:26.328Z,8.13
2022-12-01T06:25:56.232Z,7.75
2022-12-01T06:28:23.519Z,12.68
2022-12-01T06:30:51.039Z,7.82
2022-12-01T06:33:18.353Z,9.50
2022-12-01T06:35:45.538Z,8.80
2022-12-01T06:38:12.786Z,13.20
2022-12-01T06:40:40.015Z,9.63
2022-12-01T06:43:07.337Z,14.50
2022-12-01T06:45:34.607Z,14.05
2022-12-01T06:48:02.018Z,10.15
2022-12-01T06:50:29.172Z,10.38
2022-12-01T06:52:58.185Z,11.27
2022-12-01T06:55:27.054Z,9.90
2022-12-01T06:57:54.971Z,21.00
2022-12-01T07:00:22.952Z,11.80
2022-12-01T07:02:50.244Z,13.07
2022-12-01T07:05:17.860Z,11.68
2022-12-01T07:07:45.399Z,13.15
2022-12-01T07:10:14.182Z,12.93
2022-12-01T07:12:41.630Z,11.90
2022-12-01T07:15:09.429Z,13.73
2022-12-01T07:17:36.924Z,12.13
2022-12-01T07:20:04.661Z,13.52
2022-12-01T07:22:33.002Z,13.60
2022-12-01T07:25:00.307Z,15.20
2022-12-01T07:27:30.976Z,14.38
2022-12-01T07:29:58.287Z,16.40
2022-12-01T07:32:26.042Z,16.77
2022-12-01T07:34:53.391Z,23.52
2022-12-01T07:37:20.471Z,14.85
2022-12-01T07:39:48.224Z,16.25
2022-12-01T07:42:15.707Z,17.38
2022-12-01T07:44:43.272Z,15.02
2022-12-01T07:47:10.447Z,18.00
2022-12-01T07:49:38.406Z,13.13
2022-12-01T07:52:05.661Z,37.72
2022-12-01T07:54:33.020Z,35.72
2022-12-01T07:57:00.374Z,37.13
2022-12-01T07:59:27.558Z,29.05
2022-12-01T08:01:54.935Z,19.55
2022-12-01T08:04:22.307Z,13.57
2022-12-01T08:06:49.474Z,17.60
2022-12-01T08:09:16.739Z,15.38
2022-12-01T08:11:43.868Z,11.65
2022-12-01T08:14:11.310Z,10.82
2022-12-01T08:16:38.555Z,13.95
2022-12-01T08:19:06.286Z,17.23
2022-12-01T08:21:33.634Z,12.40
2022-12-01T08:24:00.862Z,12.20
2022-12-01T08:26:28.069Z,11.13
2022-12-01T08:28:55.513Z,12.02
2022-12-01T08:31:27.460Z,10.93
2022-12-01T08:33:55.775Z,11.80
2022-12-01T08:36:23.753Z,13.38
2022-12-01T08:38:53.536Z,14.60
2022-12-01T08:41:21.611Z,12.73
2022-12-01T08:43:57.968Z,13.68
2022-12-01T08:46:31.504Z,11.50
2022-12-01T08:48:58.802Z,15.50
2022-12-01T08:51:26.865Z,62.75
2022-12-01T08:53:56.429Z,21.05
2022-12-01T08:56:30.598Z,15.20
2022-12-01T08:58:58.343Z,17.95
2022-12-01T09:01:28.506Z,14.07
2022-12-01T09:04:06.706Z,18.48
2022-12-01T09:06:39.689Z,18.05
2022-12-01T09:09:08.208Z,19.50
2022-12-01T09:11:35.408Z,15.77
2022-12-01T09:14:02.793Z,13.32
2022-12-01T09:16:30.176Z,13.32
2022-12-01T09:18:57.664Z,14.18
2022-12-01T09:21:27.649Z,11.73
2022-12-01T09:23:55.050Z,11.52
2022-12-01T09:26:23.224Z,10.63
2022-12-01T09:28:54.238Z,11.35
2022-12-01T09:31:23.749Z,13.02
2022-12-01T09:34:00.241Z,10.80
2022-12-01T09:36:28.433Z,11.90
2022-12-01T09:38:55.794Z,11.13
2022-12-01T09:41:44.563Z,10.50
2022-12-01T09:44:20.910Z,12.35
2022-12-01T09:46:56.479Z,8.68
2022-12-01T09:49:50.142Z,7.47
2022-12-01T09:52:20.130Z,9.25
2022-12-01T09:54:48.271Z,7.88
2022-12-01T09:57:30.250Z,11.25
2022-12-01T09:59:59.907Z,10.93
2022-12-01T10:02:33.864Z,11.35
2022-12-01T10:05:06.090Z,8.80
2022-12-01T10:07:43.373Z,8.00
2022-12-01T10:10:16.532Z,8.35
2022-12-01T10:12:46.759Z,8.32
2022-12-01T10:15:23.458Z,14.63
2022-12-01T10:18:15.478Z,13.48
2022-12-01T10:21:01.543Z,7.13
2022-12-01T10:23:52.227Z,7.65
2022-12-01T10:26:34.503Z,6.63
2022-12-01T10:31:53.581Z,6.53
2022-12-01T10:34:26.844Z,8.60
2022-12-01T10:36:54.986Z,6.10
2022-12-01T10:39:38.827Z,30.00
2022-12-01T10:42:32.846Z,5.90
2022-12-01T10:45:03.378Z,5.03
2022-12-01T10:47:32.286Z,4.90
2022-12-01T10:49:59.609Z,4.90
2022-12-01T10:52:33.119Z,5.38
2022-12-01T10:55:01.206Z,6.65
2022-12-01T10:57:31.203Z,5.78
2022-12-01T11:00:02.337Z,5.90
2022-12-01T11:02:32.435Z,3.80
2022-12-01T11:05:07.444Z,5.50
2022-12-01T11:07:43.304Z,3.53
2022-12-01T11:10:30.779Z,4.10
2022-12-01T11:13:06.941Z,4.30
2022-12-01T11:15:54.347Z,6.97
2022-12-01T11:18:28.658Z,6.00
2022-12-01T11:21:08.502Z,4.85
2022-12-01T11:23:47.303Z,3.88
2022-12-01T11:26:17.956Z,3.90
2022-12-01T11:29:02.885Z,4.70
2022-12-01T11:31:45.822Z,17.52
2022-12-01T11:34:22.578Z,4.43
2022-12-01T11:36:54.508Z,4.32
2022-12-01T11:39:29.439Z,5.20
2022-12-01T11:42:00.017Z,25.67
2022-12-01T11:44:50.492Z,21.92
2022-12-01T11:47:23.810Z,4.30
2022-12-01T11:50:04.466Z,10.95
2022-12-01T11:52:34.858Z,5.82
2022-12-01T11:55:11.406Z,3.08
2022-12-01T11:57:44.376Z,20.95
2022-12-01T12:00:16.341Z,3.75
2022-12-01T12:02:49.972Z,9.02
2022-12-01T12:05:47.406Z,8.25
2022-12-01T12:08:20.862Z,4.85
2022-12-01T12:11:07.761Z,13.98
2022-12-01T12:13:40.814Z,9.38
2022-12-01T12:16:38.266Z,47.13
2022-12-01T12:19:34.106Z,21.60
2022-12-01T12:22:37.378Z,7.00
2022-12-01T12:25:30.574Z,3.60
2022-12-01T12:28:07.126Z,4.95
2022-12-01T12:30:50.241Z,7.10
2022-12-01T12:33:47.017Z,8.85
2022-12-01T12:36:29.343Z,24.23
2022-12-01T12:39:02.484Z,11.45
2022-12-01T12:41:38.488Z,4.32
2022-12-01T12:44:44.782Z,4.40
2022-12-01T12:47:44.371Z,23.25
2022-12-01T12:50:27.812Z,13.20
2022-12-01T12:53:05.254Z,9.57
2022-12-01T12:55:42.511Z,5.18
2022-12-01T12:58:34.068Z,4.07
2022-12-01T13:01:11.510Z,31.83
2022-12-01T13:04:06.364Z,14.18
2022-12-01T13:07:18.094Z,5.10
2022-12-01T13:09:51.177Z,9.33
2022-12-01T13:12:24.682Z,7.18
2022-12-01T13:15:03.602Z,6.20
2022-12-01T13:17:42.019Z,33.13
2022-12-01T13:20:18.380Z,4.35
2022-12-01T13:22:47.764Z,20.00
2022-12-01T13:25:23.965Z,78.55
2022-12-01T13:27:52.968Z,14.57
2022-12-01T13:30:23.382Z,7.55
2022-12-01T13:33:04.982Z,6.25
2022-12-01T13:35:39.933Z,71.93
2022-12-01T13:38:19.363Z,23.58
2022-12-01T13:40:46.924Z,11.38
2022-12-01T13:43:23.205Z,17.08
2022-12-01T13:45:51.757Z,28.85
2022-12-01T13:48:37.459Z,26.58
2022-12-01T13:51:05.140Z,9.32
2022-12-01T13:53:33.799Z,37.13
2022-12-01T13:56:04.134Z,7.78
2022-12-01T13:58:34.364Z,7.38
2022-12-01T14:01:20.367Z,8.75
2022-12-01T14:04:03.298Z,12.70
2022-12-01T14:06:38.637Z,9.85
2022-12-01T14:09:15.944Z,9.18
2022-12-01T14:12:06.445Z,6.03
2022-12-01T14:14:37.814Z,8.32
2022-12-01T14:17:05.357Z,7.32
2022-12-01T14:19:54.341Z,11.30
2022-12-01T14:22:33.821Z,7.10
2022-12-01T14:25:05.517Z,6.50
2022-12-01T14:27:37.565Z,5.20
2022-12-01T14:30:45.070Z,11.10
2022-12-01T14:33:43.528Z,7.03
2022-12-01T14:36:17.615Z,5.85
2022-12-01T14:38:47.618Z,8.48
2022-12-01T14:41:27.709Z,14.38
2022-12-01T14:44:06.228Z,18.40
2022-12-01T14:46:53.844Z,9.35
2022-12-01T14:49:29.606Z,15.93
2022-12-01T14:52:03.022Z,5.65
2022-12-01T14:54:39.422Z,5.88
2022-12-01T14:57:12.325Z,9.10
2022-12-01T14:59:42.620Z,7.90
2022-12-01T15:02:12.489Z,17.25
2022-12-01T15:05:12.484Z,9.40
2022-12-01T15:07:46.244Z,48.42
2022-12-01T15:10:29.445Z,29.30
2022-12-01T15:12:56.733Z,129.18
2022-12-01T15:15:26.623Z,38.90
2022-12-01T15:17:56.114Z,29.00
2022-12-01T15:20:39.612Z,13.60
2022-12-01T15:23:15.210Z,10.23
2022-12-01T15:25:44.727Z,90.63
2022-12-01T15:28:19.941Z,18.67
2022-12-01T15:30:54.162Z,24.35
2022-12-01T15:33:37.035Z,23.15
2022-12-01T15:36:07.420Z,9.60
2022-12-01T15:38:40.667Z,9.70
2022-12-01T15:41:29.170Z,11.32
2022-12-01T15:43:59.287Z,10.73
2022-12-01T15:46:31.595Z,9.70
2022-12-01T15:51:36.800Z,9.80
2022-12-01T15:54:04.428Z,8.48
2022-12-01T15:56:36.746Z,6.35
2022-12-01T15:59:27.942Z,6.10
2022-12-01T16:01:57.052Z,9.20
2022-12-01T16:04:32.430Z,7.38
2022-12-01T16:07:05.998Z,7.38
2022-12-01T16:09:39.106Z,6.88
2022-12-01T16:12:18.610Z,8.45
2022-12-01T16:15:01.068Z,5.93
2022-12-01T16:20:34.578Z,5.78
2022-12-01T16:23:11.927Z,12.68
2022-12-01T16:25:46.132Z,7.82
2022-12-01T16:28:26.994Z,8.38
2022-12-01T16:30:55.130Z,8.10
2022-12-01T16:33:26.137Z,6.95
2022-12-01T16:35:54.313Z,5.75
2022-12-01T16:38:24.649Z,5.95
2022-12-01T16:40:58.375Z,7.45
2022-12-01T16:43:27.258Z,6.05
2022-12-01T16:46:04.041Z,8.98
2022-12-01T16:48:31.944Z,10.90
2022-12-01T16:51:04.823Z,10.25
2022-12-01T16:53:32.535Z,6.57
2022-12-01T16:56:01.904Z,6.28
2022-12-01T16:58:29.755Z,7.05
2022-12-01T17:00:57.330Z,6.97
2022-12-01T17:03:28.391Z,7.13
2022-12-01T17:05:56.260Z,6.95
2022-12-01T17:08:23.581Z,6.85
2022-12-01T17:10:51.784Z,9.30
2022-12-01T17:13:21.779Z,6.25
2022-12-01T17:15:51.746Z,7.68
2022-12-01T17:18:20.946Z,8.00
2022-12-01T17:21:03.033Z,6.93
2022-12-01T17:23:33.135Z,10.95
2022-12-01T17:26:01.463Z,6.45
2022-12-01T17:28:30.909Z,11.40
2022-12-01T17:31:01.390Z,7.25
2022-12-01T17:33:29.275Z,6.15
2022-12-01T17:36:00.620Z,6.63
2022-12-01T17:38:28.184Z,8.40
2022-12-01T17:41:06.727Z,10.25
2022-12-01T17:43:35.369Z,6.07
2022-12-01T17:46:03.602Z,9.27
2022-12-01T17:48:36.090Z,20.77
2022-12-01T17:51:03.426Z,9.40
2022-12-01T17:53:30.814Z,7.60
2022-12-01T17:55:58.239Z,7.65
2022-12-01T17:58:25.518Z,8.82
2022-12-01T18:00:53.603Z,7.93
2022-12-01T18:03:21.713Z,8.13
2022-12-01T18:05:57.511Z,8.02
2022-12-01T18:08:26.881Z,7.97
2022-12-01T18:10:54.561Z,7.55
2022-12-01T18:13:22.866Z,8.00
2022-12-01T18:15:51.788Z,6.88
2022-12-01T18:18:19.102Z,7.47
2022-12-01T18:20:46.539Z,6.15
2022-12-01T18:23:14.539Z,6.95
2022-12-01T18:25:42.000Z,8.30
2022-12-01T18:28:11.295Z,10.27
2022-12-01T18:30:39.125Z,7.10
2022-12-01T18:33:11.132Z,7.93
2022-12-01T18:35:43.908Z,9.30
2022-12-01T18:38:12.023Z,10.45
2022-12-01T18:40:39.969Z,9.18
2022-12-01T18:43:07.426Z,8.68
2022-12-01T18:45:35.423Z,10.25
2022-12-01T18:48:05.159Z,11.32
2022-12-01T18:50:34.609Z,12.15
2022-12-01T18:53:01.898Z,15.82
2022-12-01T18:55:29.607Z,15.30
2022-12-01T18:57:56.955Z,13.80
2022-12-01T19:00:24.502Z,14.60
2022-12-01T19:02:51.881Z,11.40
2022-12-01T19:05:19.493Z,16.90
2022-12-01T19:07:47.131Z,13.05
2022-12-01T19:10:15.140Z,16.23
2022-12-01T19:12:42.672Z,14.25
2022-12-01T19:15:10.559Z,15.65
2022-12-01T19:17:37.958Z,204.10
2022-12-01T19:20:06.237Z,66.95
2022-12-01T19:22:33.576Z,56.28
2022-12-01T19:25:02.719Z,38.28
2022-12-01T19:27:31.519Z,75.15
2022-12-01T19:29:58.888Z,173.73
2022-12-01T19:32:26.340Z,245.13
2022-12-01T19:34:53.995Z,74.32
2022-12-01T19:37:21.639Z,55.42
2022-12-01T19:39:49.324Z,98.53
2022-12-01T19:42:16.998Z,155.10
2022-12-01T19:44:46.843Z,191.32
2022-12-01T19:47:17.813Z,106.95
2022-12-01T19:49:49.983Z,101.93
2022-12-01T19:52:17.305Z,89.15
2022-12-01T19:54:44.680Z,120.95
2022-12-01T19:57:12.205Z,79.18
2022-12-01T19:59:40.832Z,22.10
2022-12-01T20:02:10.051Z,109.47
2022-12-01T20:04:41.694Z,54.53
2022-12-01T20:07:09.076Z,54.03
2022-12-01T20:09:36.571Z,49.38
2022-12-01T20:12:04.287Z,47.47
2022-12-01T20:14:31.745Z,52.63
2022-12-01T20:16:59.189Z,33.60
2022-12-01T20:19:26.587Z,66.55
2022-12-01T20:21:53.947Z,108.88
2022-12-01T20:24:22.353Z,87.65
2022-12-01T20:26:52.992Z,44.58
2022-12-01T20:29:23.743Z,25.38
2022-12-01T20:31:52.509Z,26.65
2022-12-01T20:34:23.467Z,20.30
2022-12-01T20:36:50.783Z,21.58
2022-12-01T20:39:18.404Z,25.15
2022-12-01T20:41:46.459Z,68.45
2022-12-01T20:44:14.402Z,68.50
2022-12-01T20:46:41.892Z,53.20
2022-12-01T20:49:09.717Z,58.63
2022-12-01T20:51:37.246Z,66.25
2022-12-01T20:54:27.162Z,151.23
2022-12-01T20:56:54.152Z,77.72
2022-12-01T20:59:21.476Z,127.28
2022-12-01T21:01:48.823Z,97.50
2022-12-01T21:04:16.295Z,56.45
2022-12-01T21:06:43.873Z,56.50
2022-12-01T21:09:12.571Z,35.03
2022-12-01T21:12:06.326Z,80.68
2022-12-01T21:14:44.804Z,48.28
2022-12-01T21:17:41.378Z,90.28
2022-12-01T21:20:23.564Z,40.53
2022-12-01T21:22:51.444Z,39.15
2022-12-01T21:25:22.972Z,246.30
2022-12-01T21:27:51.234Z,271.02
2022-12-01T21:30:22.139Z,147.65
2022-12-01T21:32:50.097Z,78.80
2022-12-01T21:35:23.759Z,119.53
2022-12-01T21:37:59.299Z,91.53
2022-12-01T21:40:27.424Z,51.67
2022-12-01T21:42:56.638Z,49.42
2022-12-01T21:45:29.354Z,52.88
2022-12-01T21:48:18.040Z,82.90
2022-12-01T21:50:50.874Z,49.67
2022-12-01T21:53:21.676Z,199.27
2022-12-01T21:55:49.578Z,154.93
2022-12-01T21:58:28.195Z,97.68
2022-12-01T22:00:57.678Z,101.72
2022-12-01T22:03:48.022Z,54.50
2022-12-01T22:06:31.965Z,49.17
2022-12-01T22:09:26.000Z,38.13
2022-12-01T22:12:20.749Z,27.75
2022-12-01T22:14:48.469Z,38.65
2022-12-01T22:17:20.984Z,32.17
2022-12-01T22:22:26.414Z,41.72
2022-12-01T22:25:01.573Z,148.35
2022-12-01T22:27:33.616Z,191.55
2022-12-01T22:30:07.510Z,105.13
2022-12-01T22:33:05.472Z,43.60
2022-12-01T22:35:44.158Z,32.67
2022-12-01T22:38:19.388Z,26.95
2022-12-01T22:40:57.481Z,24.27
2022-12-01T22:43:28.732Z,64.60
2022-12-01T22:46:35.429Z,51.45
2022-12-01T22:49:22.573Z,53.03
2022-12-01T22:51:59.696Z,61.35
2022-12-01T22:54:38.779Z,22.98
2022-12-01T22:57:15.810Z,21.05
2022-12-01T22:59:44.604Z,18.60
2022-12-01T23:02:22.244Z,20.45
2022-12-01T23:04:57.540Z,19.08
2022-12-01T23:07:33.889Z,17.55
2022-12-01T23:10:11.270Z,20.83
2022-12-01T23:12:39.926Z,36.70
2022-12-01T23:15:34.904Z,32.03
2022-12-01T23:18:34.271Z,25.15
2022-12-01T23:21:02.403Z,20.15
2022-12-01T23:23:34.949Z,23.38
2022-12-01T23:26:04.020Z,28.98
2022-12-01T23:28:31.832Z,36.53
2022-12-01T23:31:00.077Z,23.95
2022-12-01T23:33:32.739Z,22.20
2022-12-01T23:36:09.995Z,18.50
2022-12-01T23:38:45.943Z,18.88
2022-12-01T23:41:21.465Z,16.52
2022-12-01T23:43:54.266Z,18.88
2022-12-01T23:46:25.133Z,17.92
2022-12-01T23:48:59.002Z,17.42
2022-12-01T23:51:31.026Z,18.40
2022-12-01T23:54:01.027Z,16.73
2022-12-01T23:56:31.784Z,16.92
2022-12-01T23:59:01.378Z,17.67
